Time;durP1;ratioP1;P1;durP2;ratioP2;P2;SDS_P1;SDS_P2;PMS_P1;PMS_P2;Temp;Humidity;BMP_temperature;BMP_pressure;BME280_temperature;BME280_humidity;BME280_pressure;Samples;Min_cycle;Max_cycle;Signal;HPM_P1;HPM_P2
2021/04/28 00:05:52;;;;;;;;;24.50;23.75;;;;;;;;8704710;40;11231;-48
2021/04/28 00:11:53;;;;;;;;;25.00;22.50;;;;;;;;8704369;40;10534;-49
2021/04/28 00:17:55;;;;;;;;;27.50;24.25;;;;;;;;8703958;40;10489;-48
2021/04/28 00:23:58;;;;;;;;;23.25;23.25;;;;;;;;8703297;40;10437;-48
2021/04/28 00:30:00;;;;;;;;;25.00;22.50;;;;;;;;8705030;41;10566;-49
2021/04/28 00:36:02;;;;;;;;;27.75;22.00;;;;;;;;8703695;41;11243;-47
2021/04/28 00:42:05;;;;;;;;;27.75;26.50;;;;;;;;8703453;40;10470;-49
2021/04/28 00:48:07;;;;;;;;;25.75;25.25;;;;;;;;8702680;41;10966;-46
2021/04/28 00:54:12;;;;;;;;;25.00;23.25;;;;;;;;8703846;41;10473;-51
2021/04/28 01:00:15;;;;;;;;;25.50;23.75;;;;;;;;8699199;41;10732;-51
2021/04/28 01:06:18;;;;;;;;;25.00;23.50;;;;;;;;8699733;40;10507;-47
2021/04/28 01:12:21;;;;;;;;;28.75;22.25;;;;;;;;8703004;41;10685;-48
2021/04/28 01:18:24;;;;;;;;;28.75;25.75;;;;;;;;8704420;41;10577;-48
2021/04/28 01:24:26;;;;;;;;;23.25;22.25;;;;;;;;8703307;41;10477;-48
2021/04/28 01:30:38;;;;;;;;;25.50;23.75;;;;;;;;8705476;41;10741;-49
2021/04/28 01:36:42;;;;;;;;;26.75;25.75;;;;;;;;8700471;40;10554;-48
2021/04/28 01:42:49;;;;;;;;;29.50;26.00;;;;;;;;8702921;40;10561;-47
2021/04/28 01:48:51;;;;;;;;;20.25;19.75;;;;;;;;8703976;40;10628;-47
2021/04/28 01:54:53;;;;;;;;;23.25;22.75;;;;;;;;8701397;40;10552;-51
2021/04/28 02:00:55;;;;;;;;;20.50;19.25;;;;;;;;8703821;41;10500;-51
2021/04/28 02:07:02;;;;;;;;;28.25;22.75;;;;;;;;8701292;41;10525;-48
2021/04/28 02:13:05;;;;;;;;;24.25;22.75;;;;;;;;8701535;40;10578;-48
2021/04/28 02:19:11;;;;;;;;;21.75;21.75;;;;;;;;8713265;40;10499;-46
2021/04/28 02:25:17;;;;;;;;;22.00;19.00;;;;;;;;8715778;40;10682;-46
2021/04/28 02:31:43;;;;;;;;;28.50;26.50;;;;;;;;8717591;40;10605;-50
2021/04/28 02:38:00;;;;;;;;;26.00;24.00;;;;;;;;8716330;40;10534;-48
2021/04/28 02:44:28;;;;;;;;;28.00;25.75;;;;;;;;8725781;40;10876;-48
2021/04/28 02:50:31;;;;;;;;;28.75;27.25;;;;;;;;8716759;40;10710;-48
2021/04/28 02:56:44;;;;;;;;;26.00;24.00;;;;;;;;8717040;40;10452;-49
2021/04/28 03:02:48;;;;;;;;;29.00;25.50;;;;;;;;8725294;40;10928;-47
2021/04/28 03:08:49;;;;;;;;;23.00;23.00;;;;;;;;8716728;40;11030;-48
2021/04/28 03:14:51;;;;;;;;;30.25;27.00;;;;;;;;8725229;40;10925;-48
2021/04/28 03:20:54;;;;;;;;;26.50;26.50;;;;;;;;8725614;40;10636;-48
2021/04/28 03:27:07;;;;;;;;;32.25;28.50;;;;;;;;8716862;40;10556;-48
2021/04/28 03:33:10;;;;;;;;;25.00;24.00;;;;;;;;8724927;40;10516;-49
2021/04/28 03:39:31;;;;;;;;;28.50;25.00;;;;;;;;8715560;40;10528;-46
2021/04/28 03:45:33;;;;;;;;;25.00;21.75;;;;;;;;8724400;40;10679;-48
2021/04/28 03:51:36;;;;;;;;;32.50;29.00;;;;;;;;8719075;40;10840;-53
2021/04/28 03:57:49;;;;;;;;;27.75;26.25;;;;;;;;8729564;40;10437;-51
2021/04/28 04:03:52;;;;;;;;;26.25;25.00;;;;;;;;9748162;23;10503;-56
2021/04/28 04:10:12;;;;;;;;;29.25;27.75;;;;;;;;8752679;40;10533;-54
2021/04/28 04:16:14;;;;;;;;;29.50;28.25;;;;;;;;8743316;40;10510;-56
2021/04/28 04:22:16;;;;;;;;;24.50;21.50;;;;;;;;8736378;40;11167;-56
2021/04/28 04:28:38;;;;;;;;;26.00;25.25;;;;;;;;8752043;40;10269;-57
2021/04/28 04:34:57;;;;;;;;;35.75;28.00;;;;;;;;8755099;40;10449;-56
2021/04/28 04:41:17;;;;;;;;;19.50;19.25;;;;;;;;8752814;40;10427;-56
2021/04/28 04:47:39;;;;;;;;;27.75;23.50;;;;;;;;8746874;40;10474;-56
2021/04/28 04:53:40;;;;;;;;;27.50;24.25;;;;;;;;8746529;40;10640;-57
2021/04/28 04:59:42;;;;;;;;;31.00;29.00;;;;;;;;8750606;40;10369;-56
2021/04/28 05:05:44;;;;;;;;;31.50;27.25;;;;;;;;8755895;40;10568;-57
2021/04/28 05:11:45;;;;;;;;;28.25;27.75;;;;;;;;8754828;40;10299;-57
2021/04/28 05:17:47;;;;;;;;;28.50;24.75;;;;;;;;8755890;40;10406;-56
2021/04/28 05:23:48;;;;;;;;;23.75;23.00;;;;;;;;8747663;40;10571;-59
2021/04/28 05:30:20;;;;;;;;;26.75;25.75;;;;;;;;8716804;40;10424;-57
2021/04/28 05:36:21;;;;;;;;;24.75;21.75;;;;;;;;8733674;40;10414;-57
2021/04/28 05:42:26;;;;;;;;;23.50;23.50;;;;;;;;8727435;40;10370;-59
2021/04/28 05:48:28;;;;;;;;;26.75;25.50;;;;;;;;8743586;40;11652;-58
2021/04/28 05:54:29;;;;;;;;;28.00;26.25;;;;;;;;8729937;40;10308;-55
2021/04/28 06:00:32;;;;;;;;;26.00;23.00;;;;;;;;8730342;40;10456;-61
2021/04/28 06:06:34;;;;;;;;;19.75;19.75;;;;;;;;8729855;40;10560;-58
2021/04/28 06:12:35;;;;;;;;;28.75;26.75;;;;;;;;8749379;40;10416;-58
2021/04/28 06:18:37;;;;;;;;;32.00;29.75;;;;;;;;8729937;40;10449;-55
2021/04/28 06:24:39;;;;;;;;;35.50;30.25;;;;;;;;8730818;40;10370;-57
2021/04/28 06:30:40;;;;;;;;;36.50;29.75;;;;;;;;8732129;40;10479;-52
2021/04/28 06:36:42;;;;;;;;;27.00;24.50;;;;;;;;8741287;40;10451;-55
2021/04/28 06:42:43;;;;;;;;;30.25;23.75;;;;;;;;8727153;40;11011;-54
2021/04/28 06:48:45;;;;;;;;;21.00;19.00;;;;;;;;8735483;40;10394;-53
2021/04/28 06:54:46;;;;;;;;;32.00;28.50;;;;;;;;8731771;40;10585;-56
2021/04/28 07:00:50;;;;;;;;;26.50;26.50;;;;;;;;8751544;40;10484;-57
2021/04/28 07:06:51;;;;;;;;;28.75;27.50;;;;;;;;8752077;40;10401;-56
2021/04/28 07:12:53;;;;;;;;;34.50;29.00;;;;;;;;8750798;40;10609;-55
2021/04/28 07:18:55;;;;;;;;;34.25;32.00;;;;;;;;8751731;40;10572;-55
2021/04/28 07:24:56;;;;;;;;;31.75;29.00;;;;;;;;8752647;40;10540;-54
2021/04/28 07:30:58;;;;;;;;;38.50;33.25;;;;;;;;8747578;40;10423;-56
2021/04/28 07:36:59;;;;;;;;;32.75;28.50;;;;;;;;8749440;40;10451;-53
2021/04/28 07:43:02;;;;;;;;;26.25;25.25;;;;;;;;8747367;40;10602;-53
2021/04/28 07:49:04;;;;;;;;;28.75;26.00;;;;;;;;8752392;40;11226;-55
2021/04/28 07:55:06;;;;;;;;;28.00;26.00;;;;;;;;8741664;40;10600;-54
2021/04/28 08:01:07;;;;;;;;;26.25;23.25;;;;;;;;8752919;40;10597;-56
2021/04/28 08:07:10;;;;;;;;;23.75;23.75;;;;;;;;8745965;40;10471;-57
2021/04/28 08:13:12;;;;;;;;;29.25;25.25;;;;;;;;8747357;40;10529;-54
2021/04/28 08:19:14;;;;;;;;;22.75;22.00;;;;;;;;8750078;40;10302;-58
2021/04/28 08:25:16;;;;;;;;;30.25;26.75;;;;;;;;8749645;40;10450;-56
2021/04/28 08:31:21;;;;;;;;;29.00;27.50;;;;;;;;8752086;40;10301;-53
2021/04/28 08:37:23;;;;;;;;;29.00;26.25;;;;;;;;8748202;40;10384;-54
2021/04/28 08:43:26;;;;;;;;;22.00;21.75;;;;;;;;8753290;40;10688;-56
2021/04/28 08:49:30;;;;;;;;;20.75;19.00;;;;;;;;8740508;40;10564;-53
2021/04/28 08:55:32;;;;;;;;;32.00;27.25;;;;;;;;8743698;40;10488;-54
2021/04/28 09:01:38;;;;;;;;;28.50;26.25;;;;;;;;8743129;40;10470;-56
2021/04/28 09:07:41;;;;;;;;;24.25;24.25;;;;;;;;8749788;40;10532;-55
2021/04/28 09:13:43;;;;;;;;;38.50;35.75;;;;;;;;8736545;40;10700;-57
2021/04/28 09:19:52;;;;;;;;;35.75;34.75;;;;;;;;8747884;40;10385;-54
2021/04/28 09:26:21;;;;;;;;;25.25;22.25;;;;;;;;8742827;40;10566;-58
2021/04/28 09:32:45;;;;;;;;;32.00;30.00;;;;;;;;8749099;40;10373;-51
2021/04/28 09:39:05;;;;;;;;;32.00;31.50;;;;;;;;8750118;40;10386;-59
2021/04/28 09:45:07;;;;;;;;;37.75;34.50;;;;;;;;8750247;40;10602;-59
2021/04/28 09:51:09;;;;;;;;;24.25;22.00;;;;;;;;8740542;40;10375;-56
2021/04/28 09:57:15;;;;;;;;;30.75;29.50;;;;;;;;8751922;40;10533;-58
2021/04/28 10:03:18;;;;;;;;;30.50;28.75;;;;;;;;8752188;40;10864;-57
2021/04/28 10:09:40;;;;;;;;;37.25;34.50;;;;;;;;8751044;40;10685;-59
2021/04/28 10:15:45;;;;;;;;;32.50;29.75;;;;;;;;8739662;40;10429;-56
2021/04/28 10:21:48;;;;;;;;;27.75;27.00;;;;;;;;8747318;40;10621;-52
2021/04/28 10:27:50;;;;;;;;;35.25;35.25;;;;;;;;8743603;40;10462;-56
2021/04/28 10:33:55;;;;;;;;;33.25;28.75;;;;;;;;8751736;40;10438;-56
2021/04/28 10:40:21;;;;;;;;;52.50;42.00;;;;;;;;8750773;40;10675;-55
2021/04/28 10:46:23;;;;;;;;;38.25;34.50;;;;;;;;8751011;40;10539;-54
2021/04/28 10:53:07;;;;;;;;;40.25;39.00;;;;;;;;8726952;40;10406;-57
2021/04/28 10:59:36;;;;;;;;;31.25;27.75;;;;;;;;8726677;40;11009;-54
2021/04/28 11:05:41;;;;;;;;;32.75;31.50;;;;;;;;8737731;40;11310;-57
2021/04/28 11:11:45;;;;;;;;;31.25;30.25;;;;;;;;8743672;40;10433;-52
2021/04/28 11:17:46;;;;;;;;;36.50;32.50;;;;;;;;8748103;40;10658;-54
2021/04/28 11:24:09;;;;;;;;;38.75;36.25;;;;;;;;8748527;40;10495;-54
2021/04/28 11:30:20;;;;;;;;;39.50;33.25;;;;;;;;8749123;40;10556;-50
2021/04/28 11:36:22;;;;;;;;;38.00;35.50;;;;;;;;8744009;40;10559;-55
2021/04/28 11:42:23;;;;;;;;;42.50;38.00;;;;;;;;8745986;40;11097;-56
2021/04/28 11:48:25;;;;;;;;;31.25;30.50;;;;;;;;8749991;40;10568;-59
2021/04/28 11:54:27;;;;;;;;;41.50;36.75;;;;;;;;8745392;40;10653;-54
2021/04/28 12:00:32;;;;;;;;;35.25;32.25;;;;;;;;8747002;40;10593;-57
2021/04/28 12:06:44;;;;;;;;;37.50;37.25;;;;;;;;8750141;40;10837;-54
2021/04/28 12:12:46;;;;;;;;;37.50;35.00;;;;;;;;8740094;40;10816;-58
2021/04/28 12:18:47;;;;;;;;;41.75;39.75;;;;;;;;8751362;40;10596;-55
2021/04/28 12:24:55;;;;;;;;;38.25;37.75;;;;;;;;8746131;40;11281;-57
2021/04/28 12:30:56;;;;;;;;;33.25;33.25;;;;;;;;8733907;40;10422;-58
2021/04/28 12:37:23;;;;;;;;;34.25;32.50;;;;;;;;8753018;40;10589;-59
2021/04/28 12:43:32;;;;;;;;;37.75;35.50;;;;;;;;8740777;40;10422;-55
2021/04/28 12:49:36;;;;;;;;;35.50;31.00;;;;;;;;8741441;40;10662;-56
2021/04/28 12:55:40;;;;;;;;;24.50;24.25;;;;;;;;8752085;40;10765;-57
2021/04/28 13:01:42;;;;;;;;;35.25;33.75;;;;;;;;8735783;40;10404;-55
2021/04/28 13:07:46;;;;;;;;;36.25;34.75;;;;;;;;8745824;40;10428;-54
2021/04/28 13:13:51;;;;;;;;;39.25;32.50;;;;;;;;8750656;40;10548;-55
2021/04/28 13:19:53;;;;;;;;;40.50;35.25;;;;;;;;8752218;40;10421;-54
2021/04/28 13:25:57;;;;;;;;;42.50;37.50;;;;;;;;8734498;40;10879;-55
2021/04/28 13:31:59;;;;;;;;;38.00;36.50;;;;;;;;8734492;40;10416;-56
2021/04/28 13:38:04;;;;;;;;;39.75;35.25;;;;;;;;8735961;40;10502;-59
2021/04/28 13:44:08;;;;;;;;;41.25;38.25;;;;;;;;8745220;40;11134;-58
2021/04/28 13:50:11;;;;;;;;;51.25;43.25;;;;;;;;8725766;40;10369;-60
2021/04/28 13:56:12;;;;;;;;;40.25;37.00;;;;;;;;8727725;40;11034;-59
2021/04/28 14:02:13;;;;;;;;;37.50;36.25;;;;;;;;8727765;40;10581;-58
2021/04/28 14:08:15;;;;;;;;;50.00;41.75;;;;;;;;8727879;40;10759;-59
2021/04/28 14:14:17;;;;;;;;;36.25;33.25;;;;;;;;8739188;40;10762;-58
2021/04/28 14:20:19;;;;;;;;;39.25;38.50;;;;;;;;8742943;40;10454;-61
2021/04/28 14:26:20;;;;;;;;;33.50;30.25;;;;;;;;8743193;40;11009;-57
2021/04/28 14:32:22;;;;;;;;;36.75;30.75;;;;;;;;8750010;40;10519;-58
2021/04/28 14:38:27;;;;;;;;;42.00;38.00;;;;;;;;8727163;40;10702;-59
2021/04/28 14:44:28;;;;;;;;;44.25;39.25;;;;;;;;8728764;40;10524;-60
2021/04/28 14:50:30;;;;;;;;;40.25;38.00;;;;;;;;8726603;40;10455;-60
2021/04/28 14:56:32;;;;;;;;;42.50;39.25;;;;;;;;8726356;40;10572;-60
2021/04/28 15:02:34;;;;;;;;;45.00;39.50;;;;;;;;8726877;40;10611;-57
2021/04/28 15:08:37;;;;;;;;;34.50;30.50;;;;;;;;8726870;40;10567;-57
2021/04/28 15:14:39;;;;;;;;;40.25;38.00;;;;;;;;8733513;40;10496;-59
2021/04/28 15:20:41;;;;;;;;;41.50;38.00;;;;;;;;8737890;40;10823;-60
2021/04/28 15:26:57;;;;;;;;;41.50;39.00;;;;;;;;8751373;40;11550;-58
2021/04/28 15:33:00;;;;;;;;;36.50;36.25;;;;;;;;8750664;40;10531;-58
2021/04/28 15:39:03;;;;;;;;;45.25;39.75;;;;;;;;8742042;40;10565;-59
2021/04/28 15:45:05;;;;;;;;;42.50;37.00;;;;;;;;8728527;40;10541;-61
2021/04/28 15:51:07;;;;;;;;;38.50;34.25;;;;;;;;8729912;40;10604;-57
2021/04/28 15:57:11;;;;;;;;;37.25;33.25;;;;;;;;8732048;40;10703;-57
2021/04/28 16:03:13;;;;;;;;;43.75;40.75;;;;;;;;8738861;40;10467;-59
2021/04/28 16:09:14;;;;;;;;;34.50;32.25;;;;;;;;8753813;40;10672;-58
2021/04/28 16:15:16;;;;;;;;;36.50;34.75;;;;;;;;8754014;40;10409;-59
2021/04/28 16:21:18;;;;;;;;;35.75;33.50;;;;;;;;8755166;40;10557;-57
2021/04/28 16:27:20;;;;;;;;;48.00;41.50;;;;;;;;8754762;40;10783;-59
2021/04/28 16:33:21;;;;;;;;;38.75;38.00;;;;;;;;8755007;40;10688;-57
2021/04/28 16:39:23;;;;;;;;;38.50;36.00;;;;;;;;8754396;40;10565;-56
2021/04/28 16:45:24;;;;;;;;;44.50;39.25;;;;;;;;8754399;40;10480;-57
2021/04/28 16:51:26;;;;;;;;;41.50;39.25;;;;;;;;8754084;40;10518;-60
2021/04/28 16:57:27;;;;;;;;;39.00;37.75;;;;;;;;8752912;40;11216;-59
2021/04/28 17:03:29;;;;;;;;;37.75;35.25;;;;;;;;8753131;40;10653;-57
2021/04/28 17:09:31;;;;;;;;;39.00;35.00;;;;;;;;8747044;40;10418;-56
2021/04/28 17:15:32;;;;;;;;;31.00;31.00;;;;;;;;8753851;40;10479;-59
2021/04/28 17:21:34;;;;;;;;;41.00;32.50;;;;;;;;8751978;40;10593;-58
2021/04/28 17:27:35;;;;;;;;;39.75;37.50;;;;;;;;8743876;40;10377;-61
2021/04/28 17:34:05;;;;;;;;;37.25;33.00;;;;;;;;8753507;40;10678;-59
2021/04/28 17:40:07;;;;;;;;;39.25;36.00;;;;;;;;8753422;40;10464;-56
2021/04/28 17:46:09;;;;;;;;;30.50;30.25;;;;;;;;8752727;40;10490;-59
2021/04/28 17:52:10;;;;;;;;;38.00;33.75;;;;;;;;8752919;40;10544;-58
2021/04/28 17:58:17;;;;;;;;;39.25;36.25;;;;;;;;8752594;40;10676;-59
2021/04/28 18:04:18;;;;;;;;;35.50;31.50;;;;;;;;8742524;40;11107;-57
2021/04/28 18:10:20;;;;;;;;;25.00;24.50;;;;;;;;8753373;40;10672;-56
2021/04/28 18:16:21;;;;;;;;;36.50;33.00;;;;;;;;8751201;40;10444;-59
2021/04/28 18:22:24;;;;;;;;;33.50;33.50;;;;;;;;8751062;40;11115;-56
2021/04/28 18:28:26;;;;;;;;;32.50;30.50;;;;;;;;8752924;40;10480;-57
2021/04/28 18:34:27;;;;;;;;;39.50;33.25;;;;;;;;8752422;40;10563;-57
2021/04/28 18:40:29;;;;;;;;;38.75;34.00;;;;;;;;8751335;40;10634;-57
2021/04/28 18:46:30;;;;;;;;;40.75;36.25;;;;;;;;8752585;40;10483;-56
2021/04/28 18:52:32;;;;;;;;;40.75;37.25;;;;;;;;8751575;40;10554;-56
2021/04/28 18:58:33;;;;;;;;;42.00;38.50;;;;;;;;8751352;40;10446;-56
2021/04/28 19:04:35;;;;;;;;;43.50;36.75;;;;;;;;8750946;40;10506;-55
2021/04/28 19:10:38;;;;;;;;;37.75;36.75;;;;;;;;8752331;40;10494;-56
2021/04/28 19:16:39;;;;;;;;;32.75;26.50;;;;;;;;8750533;40;10477;-57
2021/04/28 19:22:41;;;;;;;;;37.00;34.00;;;;;;;;8754787;40;10576;-58
2021/04/28 19:28:44;;;;;;;;;47.00;41.50;;;;;;;;8756029;40;10548;-57
2021/04/28 19:34:46;;;;;;;;;42.75;41.50;;;;;;;;8754945;40;10483;-58
2021/04/28 19:40:47;;;;;;;;;46.25;40.25;;;;;;;;8745292;40;10590;-54
2021/04/28 19:46:49;;;;;;;;;42.50;39.25;;;;;;;;8745584;40;10536;-57
2021/04/28 19:52:50;;;;;;;;;43.75;41.50;;;;;;;;8753914;40;10542;-58
2021/04/28 19:58:52;;;;;;;;;42.25;40.50;;;;;;;;8755265;40;10659;-57
2021/04/28 20:04:54;;;;;;;;;46.25;40.25;;;;;;;;8754099;40;10515;-56
2021/04/28 20:10:58;;;;;;;;;49.00;43.25;;;;;;;;8755094;40;10590;-57
2021/04/28 20:17:00;;;;;;;;;41.25;40.00;;;;;;;;8754961;40;11172;-58
2021/04/28 20:23:02;;;;;;;;;44.25;38.25;;;;;;;;8754095;40;10474;-57
2021/04/28 20:29:07;;;;;;;;;44.25;40.75;;;;;;;;8754381;40;10779;-56
2021/04/28 20:35:09;;;;;;;;;51.00;44.00;;;;;;;;8730442;40;10495;-57
2021/04/28 20:41:10;;;;;;;;;45.00;38.75;;;;;;;;8730211;40;10598;-58
2021/04/28 20:47:12;;;;;;;;;45.25;40.75;;;;;;;;8728379;40;10866;-56
2021/04/28 20:53:13;;;;;;;;;38.25;35.00;;;;;;;;8744437;40;10587;-57
2021/04/28 20:59:15;;;;;;;;;40.25;37.00;;;;;;;;8753757;40;10605;-57
2021/04/28 21:05:18;;;;;;;;;34.50;30.25;;;;;;;;8753566;40;10524;-57
2021/04/28 21:11:20;;;;;;;;;43.25;39.00;;;;;;;;8753419;40;10796;-57
2021/04/28 21:17:21;;;;;;;;;42.50;39.00;;;;;;;;8744401;40;10497;-58
2021/04/28 21:23:23;;;;;;;;;38.25;37.25;;;;;;;;8752221;40;11159;-57
2021/04/28 21:29:24;;;;;;;;;44.50;39.50;;;;;;;;8752676;40;10467;-56
2021/04/28 21:35:25;;;;;;;;;44.50;40.00;;;;;;;;8753652;40;10417;-56
2021/04/28 21:41:27;;;;;;;;;37.25;35.75;;;;;;;;8743701;40;10471;-57
2021/04/28 21:47:28;;;;;;;;;41.75;38.00;;;;;;;;8752714;40;10445;-57
2021/04/28 21:53:30;;;;;;;;;42.50;39.75;;;;;;;;8752317;40;10510;-55
2021/04/28 21:59:31;;;;;;;;;40.50;36.00;;;;;;;;8752090;40;10540;-55
2021/04/28 22:05:33;;;;;;;;;36.75;33.75;;;;;;;;8752999;40;10517;-56
2021/04/28 22:11:35;;;;;;;;;40.00;36.25;;;;;;;;8751912;40;10526;-57
2021/04/28 22:17:36;;;;;;;;;35.50;34.00;;;;;;;;8752865;40;10437;-56
2021/04/28 22:23:38;;;;;;;;;42.50;36.75;;;;;;;;8752798;40;10510;-56
2021/04/28 22:29:41;;;;;;;;;36.75;33.00;;;;;;;;8752304;40;10537;-56
2021/04/28 22:35:44;;;;;;;;;46.00;34.75;;;;;;;;8752345;40;10530;-56
2021/04/28 22:41:46;;;;;;;;;31.50;31.50;;;;;;;;8751073;40;10481;-57
2021/04/28 22:47:50;;;;;;;;;42.00;37.50;;;;;;;;8752390;40;10641;-57
2021/04/28 22:53:52;;;;;;;;;32.00;32.00;;;;;;;;8750453;40;10791;-57
2021/04/28 22:59:55;;;;;;;;;38.75;34.75;;;;;;;;8750917;40;10548;-56
2021/04/28 23:05:56;;;;;;;;;31.75;30.75;;;;;;;;8742036;40;10650;-54
2021/04/28 23:11:58;;;;;;;;;36.50;32.25;;;;;;;;8751718;40;11269;-55
2021/04/28 23:17:59;;;;;;;;;38.25;33.50;;;;;;;;8752426;40;10726;-56
2021/04/28 23:24:01;;;;;;;;;37.25;32.50;;;;;;;;8749975;40;10617;-56
2021/04/28 23:30:13;;;;;;;;;20.50;17.50;;;;;;;;8750313;40;11153;-56
2021/04/28 23:36:14;;;;;;;;;40.50;36.75;;;;;;;;8751980;40;10652;-57
2021/04/28 23:42:16;;;;;;;;;32.25;32.25;;;;;;;;8750289;40;11195;-56
2021/04/28 23:48:17;;;;;;;;;29.00;28.25;;;;;;;;8751052;40;10618;-56
2021/04/28 23:54:20;;;;;;;;;34.50;34.00;;;;;;;;8750963;40;10614;-57
